Time;durP1;ratioP1;P1;durP2;ratioP2;P2;SDS_P1;SDS_P2;PMS_P1;PMS_P2;Temp;Humidity;BMP_temperature;BMP_pressure;BME280_temperature;BME280_humidity;BME280_pressure;Samples;Min_cycle;Max_cycle;Signal;HPM_P1;HPM_P2
2023/07/17 00:00:54;;;;;;;15.02;6.53;;;;;;;13.97;100.00;101401.31;10483852;28;20075;-82
2023/07/17 00:05:56;;;;;;;12.90;6.38;;;;;;;13.95;100.00;101394.25;10483175;28;20135;-81
2023/07/17 00:10:58;;;;;;;11.63;7.05;;;;;;;13.93;100.00;101389.75;10482153;28;20048;-81
2023/07/17 00:15:58;;;;;;;13.70;6.83;;;;;;;13.90;100.00;101394.88;10450626;28;20184;-81
2023/07/17 00:20:59;;;;;;;17.83;7.53;;;;;;;13.85;100.00;101409.56;10482891;28;20131;-81
2023/07/17 00:25:59;;;;;;;25.90;10.82;;;;;;;13.83;100.00;101433.19;10483784;28;20473;-81
2023/07/17 00:31:00;;;;;;;15.20;6.45;;;;;;;13.83;100.00;101450.69;10482554;28;20048;-81
2023/07/17 00:36:00;;;;;;;12.75;6.53;;;;;;;13.81;100.00;101448.00;10483975;28;20105;-80
2023/07/17 00:41:01;;;;;;;12.40;7.22;;;;;;;13.82;100.00;101444.56;10482421;28;20093;-81
2023/07/17 00:46:03;;;;;;;13.23;6.50;;;;;;;13.82;100.00;101446.25;10481157;28;20122;-80
2023/07/17 00:51:03;;;;;;;14.27;6.00;;;;;;;13.83;100.00;101437.53;10481690;28;20033;-80
2023/07/17 00:56:04;;;;;;;8.02;4.85;;;;;;;13.79;100.00;101433.91;10465975;28;20480;-80
2023/07/17 01:01:04;;;;;;;12.05;5.25;;;;;;;13.76;100.00;101421.50;10457901;28;20040;-80
2023/07/17 01:06:05;;;;;;;16.45;8.68;;;;;;;13.73;100.00;101429.25;10415107;28;20119;-80
2023/07/17 01:11:05;;;;;;;12.13;6.18;;;;;;;13.68;100.00;101437.78;10431217;28;20396;-81
2023/07/17 01:16:06;;;;;;;14.18;6.53;;;;;;;13.63;100.00;101440.19;10430148;28;20128;-81
2023/07/17 01:21:08;;;;;;;14.13;5.68;;;;;;;13.58;100.00;101449.59;10423011;28;20052;-81
2023/07/17 01:26:13;;;;;;;14.68;6.55;;;;;;;13.55;100.00;101449.47;10447432;28;20033;-81
2023/07/17 01:31:13;;;;;;;17.23;6.10;;;;;;;13.49;100.00;101443.09;10431392;28;20113;-81
2023/07/17 01:36:15;;;;;;;12.23;5.40;;;;;;;13.45;100.00;101442.91;10446870;28;20086;-81
2023/07/17 01:41:15;;;;;;;9.53;5.00;;;;;;;13.42;100.00;101443.66;10447877;28;20063;-81
2023/07/17 01:46:16;;;;;;;12.35;6.57;;;;;;;13.47;100.00;101442.13;10447127;28;20045;-81
2023/07/17 01:51:16;;;;;;;9.55;6.07;;;;;;;13.48;100.00;101445.69;10437869;28;20496;-81
2023/07/17 01:56:17;;;;;;;16.63;5.95;;;;;;;13.46;100.00;101439.47;10445203;28;20098;-81
2023/07/17 02:01:17;;;;;;;16.45;6.15;;;;;;;13.47;100.00;101444.78;10428785;28;20045;-80
2023/07/17 02:06:18;;;;;;;14.30;7.13;;;;;;;13.49;100.00;101440.47;10446201;28;20072;-80
2023/07/17 02:11:19;;;;;;;15.07;7.70;;;;;;;13.46;100.00;101445.59;10467350;28;20128;-81
2023/07/17 02:16:19;;;;;;;13.70;6.35;;;;;;;13.42;100.00;101442.78;10486776;28;20368;-80
2023/07/17 02:21:20;;;;;;;17.38;6.30;;;;;;;13.38;100.00;101456.59;10488498;28;20040;-81
2023/07/17 02:26:20;;;;;;;14.38;5.75;;;;;;;13.30;100.00;101451.88;10486423;28;20044;-80
2023/07/17 02:31:21;;;;;;;11.18;5.80;;;;;;;13.21;100.00;101459.34;10481267;28;20076;-81
2023/07/17 02:36:22;;;;;;;12.07;5.75;;;;;;;13.03;100.00;101459.34;10506658;28;20131;-80
2023/07/17 02:41:22;;;;;;;14.88;6.47;;;;;;;12.84;100.00;101462.84;10510959;28;20499;-81
2023/07/17 02:46:23;;;;;;;16.27;6.55;;;;;;;12.73;100.00;101468.50;10486852;28;20426;-81
2023/07/17 02:51:23;;;;;;;13.18;7.07;;;;;;;12.69;100.00;101466.53;10485618;28;20044;-81
2023/07/17 02:56:24;;;;;;;17.05;7.60;;;;;;;12.72;100.00;101473.66;10486731;28;20437;-80
2023/07/17 03:01:25;;;;;;;14.85;7.78;;;;;;;12.58;100.00;101481.75;10476326;28;20036;-79
2023/07/17 03:06:26;;;;;;;12.23;5.53;;;;;;;12.46;100.00;101476.81;10481216;28;20496;-80
2023/07/17 03:11:26;;;;;;;12.82;6.10;;;;;;;12.29;100.00;101485.56;10476620;28;20064;-80
2023/07/17 03:16:27;;;;;;;9.68;5.95;;;;;;;12.16;100.00;101491.91;10493282;28;20044;-80
2023/07/17 03:21:27;;;;;;;12.77;6.50;;;;;;;12.13;100.00;101492.66;10483937;27;20076;-81
2023/07/17 03:26:28;;;;;;;16.25;7.15;;;;;;;12.03;100.00;101493.00;10462785;28;20064;-81
2023/07/17 03:31:28;;;;;;;12.82;6.50;;;;;;;12.05;100.00;101496.63;10480312;28;20437;-81
2023/07/17 03:36:34;;;;;;;16.33;7.93;;;;;;;12.06;100.00;101502.75;10480173;28;20097;-81
2023/07/17 03:41:35;;;;;;;16.55;7.88;;;;;;;12.03;100.00;101509.63;10482153;28;20442;-81
2023/07/17 03:46:35;;;;;;;13.80;7.35;;;;;;;12.05;100.00;101501.88;10476644;28;20124;-80
2023/07/17 03:51:36;;;;;;;16.92;8.00;;;;;;;11.96;100.00;101510.09;10457830;28;20128;-80
2023/07/17 03:56:39;;;;;;;17.52;7.93;;;;;;;11.97;100.00;101511.91;10497816;28;20040;-80
2023/07/17 04:01:40;;;;;;;16.90;7.97;;;;;;;12.03;100.00;101514.88;10478925;28;20045;-80
2023/07/17 04:06:41;;;;;;;18.50;8.82;;;;;;;12.23;100.00;101522.88;10432523;28;20038;-80
2023/07/17 04:11:41;;;;;;;15.90;7.95;;;;;;;12.29;100.00;101520.56;10422725;28;20065;-80
2023/07/17 04:16:42;;;;;;;17.27;9.35;;;;;;;12.42;100.00;101529.06;10413600;28;20082;-80
2023/07/17 04:21:42;;;;;;;16.33;7.85;;;;;;;12.48;100.00;101534.63;10441019;28;20097;-81
2023/07/17 04:26:43;;;;;;;13.00;7.82;;;;;;;12.50;100.00;101535.63;10441441;28;20094;-80
2023/07/17 04:31:44;;;;;;;20.65;7.60;;;;;;;12.51;100.00;101537.41;10421067;28;20531;-80
2023/07/17 04:36:44;;;;;;;12.38;6.88;;;;;;;12.52;100.00;101538.34;10438034;28;20085;-79
2023/07/17 04:41:45;;;;;;;14.80;8.20;;;;;;;12.62;100.00;101548.47;10433111;28;20435;-78
2023/07/17 04:46:45;;;;;;;17.58;9.68;;;;;;;12.71;100.00;101555.91;10440540;28;20131;-79
2023/07/17 04:51:46;;;;;;;19.38;8.43;;;;;;;12.75;100.00;101552.59;10444676;28;20111;-78
2023/07/17 04:56:46;;;;;;;12.90;6.60;;;;;;;12.81;100.00;101558.16;10444328;28;20080;-77
2023/07/17 05:01:47;;;;;;;14.45;6.63;;;;;;;12.83;100.00;101561.75;10440725;28;20155;-78
2023/07/17 05:06:48;;;;;;;15.73;8.23;;;;;;;12.90;100.00;101560.34;10440960;28;20565;-81
2023/07/17 05:11:49;;;;;;;16.70;8.45;;;;;;;13.14;100.00;101562.38;10442842;28;20033;-77
2023/07/17 05:16:50;;;;;;;11.30;6.80;;;;;;;13.36;100.00;101561.66;10446825;28;20041;-78
2023/07/17 05:21:50;;;;;;;13.73;6.03;;;;;;;13.59;100.00;101562.78;10429321;28;20080;-78
2023/07/17 05:26:51;;;;;;;12.85;6.82;;;;;;;13.56;100.00;101580.13;10424961;28;20586;-78
2023/07/17 05:31:52;;;;;;;10.93;6.27;;;;;;;14.36;100.00;101572.31;10445114;28;20400;-78
2023/07/17 05:36:53;;;;;;;5.88;3.75;;;;;;;15.17;100.00;101579.22;10454761;28;20128;-78
2023/07/17 05:41:53;;;;;;;8.90;4.28;;;;;;;15.66;100.00;101576.69;10445685;28;20392;-78
2023/07/17 05:46:54;;;;;;;6.13;3.28;;;;;;;16.51;100.00;101556.03;10459038;28;21380;-78
2023/07/17 05:51:55;;;;;;;15.95;5.53;;;;;;;17.14;100.00;101472.59;10411565;28;20044;-78
2023/07/17 05:56:56;;;;;;;7.73;3.70;;;;;;;18.05;100.00;101457.50;10443143;28;20045;-80
2023/07/17 06:01:56;;;;;;;7.37;3.33;;;;;;;18.14;100.00;101478.94;10443623;28;20556;-80
2023/07/17 06:06:57;;;;;;;12.13;2.80;;;;;;;18.87;100.00;101482.47;10445352;28;20037;-80
2023/07/17 06:11:57;;;;;;;6.33;3.97;;;;;;;19.89;100.00;101510.31;10445337;28;20382;-81
2023/07/17 06:16:58;;;;;;;8.37;2.97;;;;;;;20.61;100.00;101515.16;10428369;28;20120;-82
2023/07/17 06:21:59;;;;;;;10.32;3.15;;;;;;;20.97;100.00;101545.91;10446583;28;20063;-81
2023/07/17 06:26:59;;;;;;;8.27;3.13;;;;;;;21.23;100.00;101550.72;10445638;28;20040;-80
2023/07/17 06:32:00;;;;;;;9.20;4.23;;;;;;;20.27;100.00;101560.66;10410864;28;20128;-79
2023/07/17 06:37:01;;;;;;;9.43;3.83;;;;;;;20.22;100.00;101559.69;10445237;28;20206;-78
2023/07/17 06:42:01;;;;;;;8.20;3.97;;;;;;;20.49;100.00;101572.56;10444590;28;20120;-78
2023/07/17 06:47:02;;;;;;;13.93;4.63;;;;;;;20.60;100.00;101580.75;10444565;28;20074;-77
2023/07/17 06:52:03;;;;;;;8.30;4.80;;;;;;;20.56;100.00;101578.91;10443679;28;20044;-78
2023/07/17 06:57:04;;;;;;;8.30;4.33;;;;;;;21.79;100.00;101584.34;10443599;28;20049;-78
2023/07/17 07:02:05;;;;;;;16.23;5.10;;;;;;;21.81;100.00;101598.59;10481770;28;20043;-80
2023/07/17 07:07:05;;;;;;;15.20;4.53;;;;;;;21.21;100.00;101593.28;10443479;28;20067;-79
2023/07/17 07:12:06;;;;;;;13.03;5.47;;;;;;;21.31;100.00;101606.75;10484737;28;20119;-81
2023/07/17 07:17:07;;;;;;;10.77;6.07;;;;;;;21.42;100.00;101618.44;10483304;28;20040;-79
2023/07/17 07:22:08;;;;;;;16.60;5.57;;;;;;;21.06;100.00;101611.69;10483869;28;20387;-79
2023/07/17 07:27:08;;;;;;;13.10;4.27;;;;;;;21.94;100.00;101626.25;10483164;28;20047;-79
2023/07/17 07:32:09;;;;;;;10.00;3.50;;;;;;;22.68;100.00;101641.31;10485955;28;20036;-79
2023/07/17 07:37:09;;;;;;;6.47;3.87;;;;;;;23.05;100.00;101647.00;10466001;28;20062;-78
2023/07/17 07:42:10;;;;;;;13.77;4.20;;;;;;;23.50;100.00;101639.34;10445431;28;20127;-78
2023/07/17 07:47:11;;;;;;;4.90;2.93;;;;;;;24.23;95.36;101647.72;10483668;28;20119;-79
2023/07/17 07:52:11;;;;;;;7.37;4.20;;;;;;;23.68;91.12;101649.22;10483341;28;20033;-78
2023/07/17 07:57:12;;;;;;;6.60;3.40;;;;;;;23.26;89.91;101645.41;10482856;28;20048;-80
2023/07/17 08:02:12;;;;;;;9.83;3.87;;;;;;;23.23;91.09;101653.34;10484878;28;20128;-81
2023/07/17 08:07:13;;;;;;;8.87;3.57;;;;;;;24.38;83.25;101662.03;10481884;28;20092;-78
2023/07/17 08:12:13;;;;;;;6.43;2.50;;;;;;;25.30;82.03;101661.25;10483714;28;20124;-80
2023/07/17 08:17:14;;;;;;;9.17;3.20;;;;;;;25.06;79.89;101671.09;10482871;28;20185;-80
2023/07/17 08:22:14;;;;;;;8.37;3.53;;;;;;;25.39;76.85;101663.03;10482206;28;20131;-80
2023/07/17 08:27:15;;;;;;;12.07;4.50;;;;;;;23.94;81.61;101674.31;10454669;28;20490;-79
2023/07/17 08:32:15;;;;;;;7.97;3.27;;;;;;;24.40;79.59;101669.19;10422888;28;20037;-80
2023/07/17 08:37:16;;;;;;;10.27;4.43;;;;;;;24.50;78.79;101675.44;10474438;28;20045;-79
2023/07/17 08:42:17;;;;;;;8.00;3.97;;;;;;;25.13;79.01;101674.66;10481687;28;20044;-79
2023/07/17 08:47:17;;;;;;;9.13;4.40;;;;;;;25.43;73.10;101685.34;10477111;28;20040;-78
2023/07/17 08:52:18;;;;;;;8.97;4.03;;;;;;;25.85;69.66;101683.50;10482073;28;20052;-79
2023/07/17 08:57:19;;;;;;;7.53;3.13;;;;;;;25.49;68.65;101685.38;10479575;28;20037;-78
2023/07/17 09:02:19;;;;;;;7.17;3.67;;;;;;;24.45;71.84;101685.22;10460974;28;20089;-79
2023/07/17 09:07:20;;;;;;;7.03;2.97;;;;;;;22.10;79.21;101682.44;10478563;28;20487;-79
2023/07/17 09:12:20;;;;;;;9.50;3.60;;;;;;;23.94;80.18;101677.00;10463986;28;20048;-80
2023/07/17 09:17:21;;;;;;;5.40;2.73;;;;;;;24.01;71.21;101685.06;10464008;28;20085;-80
2023/07/17 09:22:21;;;;;;;11.80;3.33;;;;;;;25.85;71.32;101679.91;10481838;28;20090;-81
2023/07/17 09:27:22;;;;;;;10.10;4.20;;;;;;;24.57;69.88;101684.38;10458656;28;20128;-83
2023/07/17 09:32:24;;;;;;;5.30;2.67;;;;;;;22.95;79.83;101690.50;10446499;28;20519;-79
2023/07/17 09:37:29;;;;;;;8.32;3.70;;;;;;;24.82;70.42;101682.66;10434716;28;20116;-82
2023/07/17 09:42:30;;;;;;;6.68;3.00;;;;;;;24.59;68.54;101688.84;10446362;28;20045;-82
2023/07/17 09:47:33;;;;;;;5.73;3.30;;;;;;;26.62;64.80;101687.63;10445876;28;20044;-81
2023/07/17 09:52:34;;;;;;;9.50;3.53;;;;;;;25.10;67.99;101685.38;10446202;28;20045;-78
2023/07/17 09:57:35;;;;;;;7.07;3.10;;;;;;;26.32;71.66;101681.53;10445803;28;20041;-78
2023/07/17 10:02:58;;;;;;;8.88;3.88;;;;;;;25.83;67.36;101688.00;10447721;28;20120;-79
2023/07/17 10:07:59;;;;;;;7.47;5.53;;;;;;;26.16;62.95;101682.50;10432402;28;20045;-80
2023/07/17 10:13:00;;;;;;;10.33;5.03;;;;;;;23.70;71.26;101681.31;10462152;28;20079;-79
2023/07/17 10:18:01;;;;;;;9.77;4.17;;;;;;;22.82;80.50;101687.72;10429572;28;20290;-80
2023/07/17 10:23:01;;;;;;;8.77;3.87;;;;;;;21.81;83.21;101690.91;10444665;28;20041;-79
2023/07/17 10:28:04;;;;;;;7.93;4.10;;;;;;;20.40;95.08;101694.69;10444426;28;20029;-78
2023/07/17 10:33:14;;;;;;;9.40;4.35;;;;;;;21.91;100.00;101695.50;10439532;28;20044;-78
2023/07/17 10:38:27;;;;;;;13.82;4.53;;;;;;;24.19;80.53;101689.63;10444835;28;20045;-79
2023/07/17 10:43:27;;;;;;;11.48;5.53;;;;;;;21.93;95.93;101704.41;10453143;28;20373;-79
2023/07/17 10:48:33;;;;;;;14.60;5.43;;;;;;;21.36;100.00;101693.78;10480737;28;20052;-79
2023/07/17 10:53:33;;;;;;;9.30;5.15;;;;;;;21.85;100.00;101700.75;10501665;28;20439;-78
2023/07/17 10:58:34;;;;;;;10.57;6.30;;;;;;;21.71;100.00;101696.13;10482023;28;20118;-78
2023/07/17 11:03:36;;;;;;;9.93;4.43;;;;;;;22.11;99.07;101685.13;10457223;28;20056;-79
2023/07/17 11:08:37;;;;;;;13.18;4.97;;;;;;;22.23;96.90;101688.81;10467931;28;20041;-79
2023/07/17 11:13:37;;;;;;;12.13;5.13;;;;;;;22.94;89.46;101686.94;10483736;28;20396;-79
2023/07/17 11:18:45;;;;;;;11.13;5.20;;;;;;;22.64;91.24;101688.44;10484270;28;20105;-78
2023/07/17 11:23:57;;;;;;;16.88;5.55;;;;;;;22.06;91.92;101697.50;10484406;28;20127;-77
2023/07/17 11:28:59;;;;;;;10.82;4.70;;;;;;;23.03;92.01;101694.13;10428502;28;20055;-78
2023/07/17 11:34:00;;;;;;;18.52;4.80;;;;;;;23.76;83.51;101686.72;10481516;27;20396;-79
2023/07/17 11:39:10;;;;;;;;;;;;;;;23.10;85.81;101681.75;10467473;28;20051;-78
2023/07/17 11:44:11;;;;;;;9.80;4.60;;;;;;;24.64;84.03;101689.75;10484035;28;19948;-78
2023/07/17 11:49:14;;;;;;;7.23;4.10;;;;;;;24.66;80.07;101692.44;10474746;28;20040;-79
2023/07/17 11:54:14;;;;;;;10.00;4.47;;;;;;;23.74;82.08;101677.78;10479229;28;20064;-81
2023/07/17 11:59:21;;;;;;;8.40;3.80;;;;;;;24.26;82.35;101674.47;10481094;28;20492;-80
2023/07/17 12:04:26;;;;;;;11.75;4.28;;;;;;;26.28;72.50;101669.03;10463802;28;20040;-80
2023/07/17 12:09:27;;;;;;;9.82;4.22;;;;;;;25.14;76.39;101654.13;10466394;28;20396;-80
2023/07/17 12:14:28;;;;;;;7.73;3.80;;;;;;;23.52;82.14;101658.03;10465457;28;20040;-78
2023/07/17 12:19:28;;;;;;;7.27;3.90;;;;;;;22.84;85.79;101659.25;10423107;28;20044;-80
2023/07/17 12:24:29;;;;;;;10.67;4.83;;;;;;;21.94;87.13;101658.25;10440415;28;20043;-81
2023/07/17 12:29:29;;;;;;;8.50;4.13;;;;;;;22.53;90.02;101648.28;10427049;28;20435;-80
2023/07/17 12:34:30;;;;;;;7.10;4.63;;;;;;;24.61;82.45;101649.59;10397586;28;20029;-81
2023/07/17 12:39:30;;;;;;;7.07;3.40;;;;;;;25.09;74.17;101646.09;10436728;28;20045;-81
2023/07/17 12:44:31;;;;;;;8.40;3.77;;;;;;;23.89;78.02;101639.53;10422380;28;20450;-82
2023/07/17 12:49:31;;;;;;;8.03;3.87;;;;;;;23.81;80.71;101642.19;10418990;28;20427;-78
2023/07/17 12:54:32;;;;;;;6.60;3.57;;;;;;;23.16;79.07;101641.75;10399295;28;20055;-79
2023/07/17 12:59:32;;;;;;;12.43;4.97;;;;;;;22.54;85.83;101639.41;10415353;28;20047;-79
2023/07/17 13:04:33;;;;;;;11.47;4.27;;;;;;;23.18;89.40;101634.66;10421080;28;20059;-81
2023/07/17 13:09:33;;;;;;;7.60;4.47;;;;;;;25.02;79.29;101636.28;10462364;28;20037;-79
2023/07/17 13:14:34;;;;;;;7.63;4.17;;;;;;;26.31;69.92;101631.47;10483588;28;20037;-80
2023/07/17 13:19:36;;;;;;;9.40;5.03;;;;;;;25.13;70.64;101621.09;10486795;28;20127;-79
2023/07/17 13:24:36;;;;;;;7.78;3.90;;;;;;;24.07;73.42;101620.06;10513444;28;21005;-79
2023/07/17 13:29:37;;;;;;;8.37;5.23;;;;;;;23.51;77.34;101629.53;10499864;28;20045;-81
2023/07/17 13:34:37;;;;;;;6.43;3.07;;;;;;;22.39;80.94;101636.56;10479415;28;20064;-81
2023/07/17 13:39:38;;;;;;;9.70;4.23;;;;;;;21.37;85.86;101670.72;10438388;28;20429;-81
2023/07/17 13:44:40;;;;;;;10.43;4.87;;;;;;;19.27;100.00;101716.91;10427503;28;20124;-78
2023/07/17 13:49:40;;;;;;;9.40;6.38;;;;;;;17.06;100.00;101680.38;10442567;28;20548;-76
2023/07/17 13:54:41;;;;;;;8.25;3.38;;;;;;;16.32;100.00;101654.84;10437135;28;20040;-76
2023/07/17 13:59:42;;;;;;;13.55;3.40;;;;;;;17.42;100.00;101629.53;10442937;28;20076;-76
2023/07/17 14:04:42;;;;;;;5.60;2.40;;;;;;;19.52;100.00;101628.16;10447253;28;20056;-76
2023/07/17 14:09:43;;;;;;;9.65;2.75;;;;;;;19.52;100.00;101629.91;10445905;28;20037;-77
2023/07/17 14:14:43;;;;;;;5.88;2.10;;;;;;;19.63;100.00;101640.78;10446294;28;20493;-77
2023/07/17 14:19:44;;;;;;;7.70;2.33;;;;;;;19.64;100.00;101640.81;10436439;28;20058;-78
2023/07/17 14:24:45;;;;;;;6.22;2.72;;;;;;;21.02;100.00;101655.06;10443040;28;20055;-78
2023/07/17 14:29:46;;;;;;;9.05;3.05;;;;;;;20.79;100.00;101664.44;10407146;28;20033;-79
2023/07/17 14:34:48;;;;;;;4.82;2.60;;;;;;;22.64;100.00;101676.84;10414235;28;20515;-77
2023/07/17 14:39:49;;;;;;;7.60;2.78;;;;;;;23.75;100.00;101675.09;10436408;28;20128;-79
2023/07/17 14:44:49;;;;;;;7.53;3.20;;;;;;;23.37;100.00;101691.78;10440991;28;20037;-80
2023/07/17 14:49:50;;;;;;;9.10;3.10;;;;;;;22.86;100.00;101681.53;10439430;28;20039;-79
2023/07/17 14:54:51;;;;;;;5.27;2.50;;;;;;;22.50;100.00;101671.38;10469038;28;20064;-79
2023/07/17 14:59:51;;;;;;;9.63;4.33;;;;;;;21.38;100.00;101678.72;10442758;28;20065;-79
2023/07/17 15:04:52;;;;;;;10.40;4.07;;;;;;;20.47;100.00;101691.28;10412716;28;20495;-78
2023/07/17 15:09:52;;;;;;;6.70;2.80;;;;;;;19.50;100.00;101705.97;10433142;28;20047;-79
2023/07/17 15:14:53;;;;;;;4.60;1.85;;;;;;;18.57;100.00;101712.41;10473878;28;20047;-77
2023/07/17 15:19:53;;;;;;;10.10;4.10;;;;;;;17.51;100.00;101802.69;10451050;28;20049;-77
2023/07/17 15:24:54;;;;;;;10.55;4.72;;;;;;;15.65;100.00;101839.66;10436996;28;20040;-75
2023/07/17 15:29:54;;;;;;;11.93;5.82;;;;;;;14.78;100.00;101808.63;10458588;28;20079;-76
2023/07/17 15:34:55;;;;;;;15.82;6.65;;;;;;;14.48;100.00;101803.72;10444289;28;20136;-76
2023/07/17 15:39:56;;;;;;;14.65;6.20;;;;;;;14.59;100.00;101802.47;10470041;28;20068;-75
2023/07/17 15:44:56;;;;;;;15.90;6.90;;;;;;;14.77;100.00;101796.28;10438784;28;20518;-76
2023/07/17 15:49:57;;;;;;;13.98;5.97;;;;;;;15.34;100.00;101817.25;10440383;28;20440;-75
2023/07/17 15:54:57;;;;;;;12.07;6.60;;;;;;;16.04;100.00;101811.34;10441256;28;20086;-76
2023/07/17 15:59:58;;;;;;;8.32;4.50;;;;;;;16.89;100.00;101790.78;10414013;28;20124;-77
2023/07/17 16:04:58;;;;;;;8.73;4.55;;;;;;;17.08;100.00;101749.16;10437579;28;20489;-76
2023/07/17 16:09:59;;;;;;;9.07;4.72;;;;;;;17.15;100.00;101737.97;10440400;28;20048;-76
2023/07/17 16:15:00;;;;;;;11.68;6.35;;;;;;;16.96;100.00;101754.91;10441045;28;20474;-76
2023/07/17 16:20:00;;;;;;;7.68;5.20;;;;;;;16.76;100.00;101768.31;10421731;28;20072;-77
2023/07/17 16:25:01;;;;;;;6.90;4.57;;;;;;;16.93;100.00;101775.94;10416440;28;20124;-77
2023/07/17 16:30:02;;;;;;;9.88;4.88;;;;;;;17.03;100.00;101772.81;10439800;28;20048;-76
2023/07/17 16:35:04;;;;;;;14.50;4.53;;;;;;;16.97;100.00;101772.59;10422627;28;20091;-77
2023/07/17 16:40:06;;;;;;;9.65;4.45;;;;;;;16.88;100.00;101758.19;10429220;28;20867;-77
2023/07/17 16:45:07;;;;;;;8.13;4.72;;;;;;;16.77;100.00;101762.19;10464797;28;20086;-76
2023/07/17 16:50:08;;;;;;;8.50;4.50;;;;;;;16.73;100.00;101768.19;10449510;28;20048;-77
2023/07/17 16:55:09;;;;;;;9.45;4.82;;;;;;;16.78;100.00;101790.41;10442032;28;20045;-77
2023/07/17 17:00:14;;;;;;;9.40;5.78;;;;;;;16.76;100.00;101794.75;10449636;28;20103;-77
2023/07/17 17:05:14;;;;;;;9.05;5.85;;;;;;;16.82;100.00;101796.69;10448153;28;20095;-77
2023/07/17 17:10:15;;;;;;;7.70;3.90;;;;;;;16.78;100.00;101787.78;10392820;28;20168;-77
2023/07/17 17:15:15;;;;;;;7.40;4.30;;;;;;;16.76;100.00;101777.97;10440857;28;20106;-77
2023/07/17 17:20:20;;;;;;;10.73;5.43;;;;;;;16.73;100.00;101784.06;10428016;28;20505;-77
2023/07/17 17:25:21;;;;;;;8.23;5.38;;;;;;;16.69;100.00;101793.59;10443103;28;20092;-77
2023/07/17 17:30:22;;;;;;;9.00;5.13;;;;;;;16.52;100.00;101806.19;10466419;28;20389;-78
2023/07/17 17:35:23;;;;;;;10.57;4.65;;;;;;;16.37;100.00;101824.09;10519134;27;20052;-77
2023/07/17 17:40:23;;;;;;;7.80;4.18;;;;;;;16.31;100.00;101819.44;10489554;28;20042;-76
2023/07/17 17:45:24;;;;;;;10.48;4.60;;;;;;;16.20;100.00;101836.63;10480434;28;20064;-74
2023/07/17 17:50:25;;;;;;;6.93;4.00;;;;;;;15.98;100.00;101839.31;10457490;28;20036;-75
2023/07/17 17:55:25;;;;;;;16.27;5.82;;;;;;;15.82;100.00;101843.00;10438191;28;20037;-76
2023/07/17 18:00:26;;;;;;;9.45;5.03;;;;;;;15.74;100.00;101849.69;10433249;28;20125;-76
2023/07/17 18:05:26;;;;;;;13.40;6.07;;;;;;;15.70;100.00;101858.31;10444350;28;20442;-77
2023/07/17 18:10:27;;;;;;;8.65;4.45;;;;;;;15.59;100.00;101849.97;10444217;28;20037;-77
2023/07/17 18:15:27;;;;;;;7.35;3.72;;;;;;;15.47;100.00;101847.69;10444207;28;20076;-76
2023/07/17 18:20:33;;;;;;;14.68;4.68;;;;;;;15.37;100.00;101845.47;10441917;28;20045;-76
2023/07/17 18:25:34;;;;;;;10.27;4.80;;;;;;;15.25;100.00;101854.66;10453824;28;20055;-77
2023/07/17 18:30:34;;;;;;;8.88;4.18;;;;;;;14.97;100.00;101869.25;10455121;28;20108;-76
2023/07/17 18:35:35;;;;;;;6.45;3.95;;;;;;;14.72;100.00;101875.13;10475430;28;20494;-76
2023/07/17 18:40:35;;;;;;;9.70;4.97;;;;;;;14.53;100.00;101883.84;10494123;28;20122;-76
2023/07/17 18:45:36;;;;;;;8.25;4.25;;;;;;;14.34;100.00;101893.50;10514328;28;20130;-76
2023/07/17 18:50:36;;;;;;;9.60;4.35;;;;;;;14.23;100.00;101903.53;10486287;28;20041;-75
2023/07/17 18:55:37;;;;;;;8.65;3.95;;;;;;;14.13;100.00;101910.88;10484126;28;20119;-76
2023/07/17 19:00:37;;;;;;;7.70;3.90;;;;;;;14.01;100.00;101909.44;10472434;28;20029;-75
2023/07/17 19:05:38;;;;;;;6.57;4.03;;;;;;;13.91;100.00;101913.34;10533226;28;20563;-76
2023/07/17 19:10:41;;;;;;;10.40;4.45;;;;;;;13.74;100.00;101920.34;10526828;28;20438;-75
2023/07/17 19:15:41;;;;;;;9.82;4.65;;;;;;;13.60;100.00;101922.28;10489180;28;20052;-75
2023/07/17 19:20:42;;;;;;;13.30;5.40;;;;;;;13.49;100.00;101924.34;10472835;28;20041;-75
2023/07/17 19:25:42;;;;;;;12.52;5.35;;;;;;;13.38;100.00;101922.84;10479444;28;20048;-75
2023/07/17 19:30:44;;;;;;;12.77;5.40;;;;;;;13.29;100.00;101932.88;10467939;28;20039;-75
2023/07/17 19:35:44;;;;;;;13.80;6.60;;;;;;;13.24;100.00;101932.63;10469809;28;20149;-75
2023/07/17 19:40:45;;;;;;;16.42;6.50;;;;;;;13.16;100.00;101928.69;10465123;28;20148;-75
2023/07/17 19:45:45;;;;;;;15.63;6.00;;;;;;;13.04;100.00;101935.09;10483943;28;20375;-75
2023/07/17 19:50:47;;;;;;;13.45;7.10;;;;;;;12.96;100.00;101951.22;10468448;28;20044;-75
2023/07/17 19:55:47;;;;;;;19.48;6.38;;;;;;;12.85;100.00;101948.03;10517362;27;20481;-75
2023/07/17 20:00:48;;;;;;;17.08;8.40;;;;;;;12.74;100.00;101950.03;10518217;28;20118;-75
2023/07/17 20:05:48;;;;;;;13.65;6.32;;;;;;;12.62;100.00;101959.03;10487496;28;20050;-75
2023/07/17 20:10:50;;;;;;;27.48;8.90;;;;;;;12.54;100.00;101960.31;10500265;28;20443;-75
2023/07/17 20:15:51;;;;;;;13.40;7.20;;;;;;;12.53;100.00;101966.41;10483768;28;20047;-75
2023/07/17 20:20:52;;;;;;;16.65;8.43;;;;;;;12.52;100.00;101975.09;10461202;28;20079;-74
2023/07/17 20:25:53;;;;;;;11.80;7.28;;;;;;;12.47;100.00;101969.59;10426099;28;20064;-75
2023/07/17 20:30:54;;;;;;;20.48;7.50;;;;;;;12.40;100.00;101975.31;10411453;28;20038;-75
2023/07/17 20:35:55;;;;;;;11.82;7.22;;;;;;;12.33;100.00;101967.88;10434105;28;20128;-75
2023/07/17 20:40:56;;;;;;;14.75;6.85;;;;;;;12.26;100.00;101974.47;10427359;28;20045;-75
2023/07/17 20:45:56;;;;;;;20.70;7.90;;;;;;;12.19;100.00;101972.31;10442664;28;20049;-76
2023/07/17 20:51:07;;;;;;;16.77;7.93;;;;;;;12.08;100.00;101974.31;10424909;28;20068;-75
2023/07/17 20:56:08;;;;;;;17.92;7.88;;;;;;;12.02;100.00;101963.47;10435700;28;20030;-75
2023/07/17 21:01:23;;;;;;;16.20;8.90;;;;;;;11.98;100.00;101977.19;10423534;28;20041;-75
2023/07/17 21:06:25;;;;;;;16.63;7.97;;;;;;;11.95;100.00;101980.50;10425872;28;20398;-75
2023/07/17 21:11:25;;;;;;;15.13;7.43;;;;;;;11.91;100.00;101981.13;10422665;28;20044;-75
2023/07/17 21:16:26;;;;;;;17.88;7.15;;;;;;;11.87;100.00;101981.75;10439983;28;20053;-75
2023/07/17 21:21:26;;;;;;;17.80;9.75;;;;;;;11.81;100.00;101984.00;10424963;28;20029;-75
2023/07/17 21:26:27;;;;;;;18.05;8.07;;;;;;;11.80;100.00;101988.38;10434173;28;20052;-75
2023/07/17 21:31:27;;;;;;;16.13;8.05;;;;;;;11.75;100.00;101977.59;10411573;28;20039;-75
2023/07/17 21:36:32;;;;;;;20.42;8.20;;;;;;;11.74;100.00;101982.75;10447501;28;20045;-75
2023/07/17 21:41:32;;;;;;;16.08;7.90;;;;;;;11.74;100.00;101985.38;10430997;28;20443;-75
2023/07/17 21:46:33;;;;;;;18.17;8.20;;;;;;;11.75;100.00;101992.44;10447978;28;20094;-76
2023/07/17 21:51:33;;;;;;;16.27;8.45;;;;;;;11.70;100.00;101994.75;10446425;28;20547;-75
2023/07/17 21:56:34;;;;;;;24.58;9.40;;;;;;;11.65;100.00;101992.69;10441523;28;20071;-76
2023/07/17 22:01:35;;;;;;;15.82;8.55;;;;;;;11.60;100.00;101997.63;10448635;28;20041;-75
2023/07/17 22:06:35;;;;;;;21.77;9.75;;;;;;;11.54;100.00;101989.38;10447147;28;20099;-75
2023/07/17 22:11:36;;;;;;;16.25;7.82;;;;;;;11.51;100.00;101991.81;10445307;28;20034;-75
2023/07/17 22:16:36;;;;;;;18.23;9.70;;;;;;;11.40;100.00;101992.06;10446496;28;20551;-76
2023/07/17 22:21:37;;;;;;;16.63;8.48;;;;;;;11.28;100.00;101984.34;10428814;28;20033;-75
2023/07/17 22:26:38;;;;;;;12.57;7.97;;;;;;;11.26;100.00;101992.91;10431348;28;20042;-75
2023/07/17 22:31:39;;;;;;;16.55;9.50;;;;;;;11.31;100.00;101988.88;10431628;28;20040;-76
2023/07/17 22:36:40;;;;;;;23.13;10.25;;;;;;;11.37;100.00;101997.09;10430055;28;20029;-75
2023/07/17 22:41:40;;;;;;;17.80;10.02;;;;;;;11.38;100.00;101996.31;10457782;28;20059;-75